sensor_id;sensor_type;location;lat;lon;timestamp;P1;durP1;ratioP1;P2;durP2;ratioP2
60038;SDS011;45916;52.734;6.544;2023-12-29T00:01:48;11.20;;;3.65;;
60038;SDS011;45916;52.734;6.544;2023-12-29T00:04:13;12.63;;;4.15;;
60038;SDS011;45916;52.734;6.544;2023-12-29T00:06:39;11.82;;;3.80;;
60038;SDS011;45916;52.734;6.544;2023-12-29T00:09:05;10.98;;;3.83;;
60038;SDS011;45916;52.734;6.544;2023-12-29T00:11:32;12.38;;;4.10;;
60038;SDS011;45916;52.734;6.544;2023-12-29T00:13:58;10.75;;;3.92;;
60038;SDS011;45916;52.734;6.544;2023-12-29T00:16:24;9.70;;;3.20;;
60038;SDS011;45916;52.734;6.544;2023-12-29T00:18:50;14.57;;;3.90;;
60038;SDS011;45916;52.734;6.544;2023-12-29T00:21:15;7.68;;;3.13;;
60038;SDS011;45916;52.734;6.544;2023-12-29T00:23:41;11.88;;;4.20;;
60038;SDS011;45916;52.734;6.544;2023-12-29T00:26:07;12.27;;;3.92;;
60038;SDS011;45916;52.734;6.544;2023-12-29T00:28:33;14.55;;;4.35;;
60038;SDS011;45916;52.734;6.544;2023-12-29T00:31:00;9.60;;;4.10;;
60038;SDS011;45916;52.734;6.544;2023-12-29T00:33:26;12.02;;;4.05;;
60038;SDS011;45916;52.734;6.544;2023-12-29T00:35:52;12.75;;;3.78;;
60038;SDS011;45916;52.734;6.544;2023-12-29T00:38:17;11.20;;;4.32;;
60038;SDS011;45916;52.734;6.544;2023-12-29T00:40:43;13.00;;;4.32;;
60038;SDS011;45916;52.734;6.544;2023-12-29T00:43:09;13.82;;;5.38;;
60038;SDS011;45916;52.734;6.544;2023-12-29T00:45:34;13.60;;;4.60;;
60038;SDS011;45916;52.734;6.544;2023-12-29T00:48:01;13.35;;;4.15;;
60038;SDS011;45916;52.734;6.544;2023-12-29T00:50:27;12.07;;;4.70;;
60038;SDS011;45916;52.734;6.544;2023-12-29T00:52:53;8.82;;;4.25;;
60038;SDS011;45916;52.734;6.544;2023-12-29T00:55:19;9.32;;;3.88;;
60038;SDS011;45916;52.734;6.544;2023-12-29T00:57:45;9.75;;;4.50;;
60038;SDS011;45916;52.734;6.544;2023-12-29T01:00:11;10.50;;;4.78;;
60038;SDS011;45916;52.734;6.544;2023-12-29T01:02:38;16.45;;;5.40;;
60038;SDS011;45916;52.734;6.544;2023-12-29T01:05:04;13.77;;;5.40;;
60038;SDS011;45916;52.734;6.544;2023-12-29T01:07:30;9.40;;;5.40;;
60038;SDS011;45916;52.734;6.544;2023-12-29T01:09:56;14.95;;;4.70;;
60038;SDS011;45916;52.734;6.544;2023-12-29T01:12:22;15.15;;;4.38;;
60038;SDS011;45916;52.734;6.544;2023-12-29T01:14:47;12.10;;;5.22;;
60038;SDS011;45916;52.734;6.544;2023-12-29T01:17:13;14.75;;;5.15;;
60038;SDS011;45916;52.734;6.544;2023-12-29T01:19:39;12.73;;;4.82;;
60038;SDS011;45916;52.734;6.544;2023-12-29T01:22:04;13.25;;;4.20;;
60038;SDS011;45916;52.734;6.544;2023-12-29T01:24:30;13.27;;;4.78;;
60038;SDS011;45916;52.734;6.544;2023-12-29T01:26:56;13.60;;;5.30;;
60038;SDS011;45916;52.734;6.544;2023-12-29T01:29:21;12.02;;;4.50;;
60038;SDS011;45916;52.734;6.544;2023-12-29T01:31:47;12.45;;;4.82;;
60038;SDS011;45916;52.734;6.544;2023-12-29T01:34:13;11.10;;;4.55;;
60038;SDS011;45916;52.734;6.544;2023-12-29T01:36:39;12.80;;;4.72;;
60038;SDS011;45916;52.734;6.544;2023-12-29T01:39:04;9.55;;;4.47;;
60038;SDS011;45916;52.734;6.544;2023-12-29T01:41:30;10.50;;;5.45;;
60038;SDS011;45916;52.734;6.544;2023-12-29T01:46:21;9.82;;;3.50;;
60038;SDS011;45916;52.734;6.544;2023-12-29T01:48:48;8.30;;;3.25;;
60038;SDS011;45916;52.734;6.544;2023-12-29T01:51:14;9.88;;;4.45;;
60038;SDS011;45916;52.734;6.544;2023-12-29T01:53:40;8.65;;;3.47;;
60038;SDS011;45916;52.734;6.544;2023-12-29T01:56:06;10.80;;;4.43;;
60038;SDS011;45916;52.734;6.544;2023-12-29T01:58:33;10.82;;;4.15;;
60038;SDS011;45916;52.734;6.544;2023-12-29T02:00:59;11.40;;;3.85;;
60038;SDS011;45916;52.734;6.544;2023-12-29T02:03:26;11.27;;;4.10;;
60038;SDS011;45916;52.734;6.544;2023-12-29T02:05:53;11.32;;;3.97;;
60038;SDS011;45916;52.734;6.544;2023-12-29T02:08:21;8.20;;;3.40;;
60038;SDS011;45916;52.734;6.544;2023-12-29T02:10:47;14.93;;;4.85;;
60038;SDS011;45916;52.734;6.544;2023-12-29T02:13:13;11.30;;;4.35;;
60038;SDS011;45916;52.734;6.544;2023-12-29T02:15:39;12.10;;;4.80;;
60038;SDS011;45916;52.734;6.544;2023-12-29T02:18:06;11.88;;;3.75;;
60038;SDS011;45916;52.734;6.544;2023-12-29T02:20:35;13.20;;;4.80;;
60038;SDS011;45916;52.734;6.544;2023-12-29T02:23:02;10.80;;;4.53;;
60038;SDS011;45916;52.734;6.544;2023-12-29T02:25:28;13.77;;;4.70;;
60038;SDS011;45916;52.734;6.544;2023-12-29T02:28:15;9.27;;;3.78;;
60038;SDS011;45916;52.734;6.544;2023-12-29T02:31:00;12.45;;;4.28;;
60038;SDS011;45916;52.734;6.544;2023-12-29T02:33:31;8.90;;;3.95;;
60038;SDS011;45916;52.734;6.544;2023-12-29T02:36:02;8.85;;;3.60;;
60038;SDS011;45916;52.734;6.544;2023-12-29T02:38:29;10.57;;;3.33;;
60038;SDS011;45916;52.734;6.544;2023-12-29T02:40:56;13.20;;;4.53;;
60038;SDS011;45916;52.734;6.544;2023-12-29T02:43:22;11.63;;;4.03;;
60038;SDS011;45916;52.734;6.544;2023-12-29T02:45:47;11.48;;;3.63;;
60038;SDS011;45916;52.734;6.544;2023-12-29T02:48:13;9.32;;;3.80;;
60038;SDS011;45916;52.734;6.544;2023-12-29T02:50:39;11.45;;;4.55;;
60038;SDS011;45916;52.734;6.544;2023-12-29T02:53:04;12.13;;;4.38;;
60038;SDS011;45916;52.734;6.544;2023-12-29T02:55:30;13.07;;;4.75;;
60038;SDS011;45916;52.734;6.544;2023-12-29T02:57:56;13.50;;;4.32;;
60038;SDS011;45916;52.734;6.544;2023-12-29T03:00:22;10.88;;;4.45;;
60038;SDS011;45916;52.734;6.544;2023-12-29T03:02:47;11.32;;;4.10;;
60038;SDS011;45916;52.734;6.544;2023-12-29T03:05:13;9.52;;;5.00;;
60038;SDS011;45916;52.734;6.544;2023-12-29T03:07:40;11.18;;;4.10;;
60038;SDS011;45916;52.734;6.544;2023-12-29T03:10:06;10.98;;;5.45;;
60038;SDS011;45916;52.734;6.544;2023-12-29T03:12:32;9.98;;;3.78;;
60038;SDS011;45916;52.734;6.544;2023-12-29T03:14:58;11.93;;;4.88;;
60038;SDS011;45916;52.734;6.544;2023-12-29T03:17:24;14.68;;;4.60;;
60038;SDS011;45916;52.734;6.544;2023-12-29T03:19:50;8.73;;;3.95;;
60038;SDS011;45916;52.734;6.544;2023-12-29T03:22:15;8.32;;;4.25;;
60038;SDS011;45916;52.734;6.544;2023-12-29T03:24:41;10.55;;;4.78;;
60038;SDS011;45916;52.734;6.544;2023-12-29T03:27:09;12.70;;;4.72;;
60038;SDS011;45916;52.734;6.544;2023-12-29T03:29:35;11.23;;;5.07;;
60038;SDS011;45916;52.734;6.544;2023-12-29T03:32:01;10.57;;;4.40;;
60038;SDS011;45916;52.734;6.544;2023-12-29T03:34:27;13.02;;;4.90;;
60038;SDS011;45916;52.734;6.544;2023-12-29T03:36:53;11.23;;;4.25;;
60038;SDS011;45916;52.734;6.544;2023-12-29T03:39:19;8.85;;;3.92;;
60038;SDS011;45916;52.734;6.544;2023-12-29T03:41:45;11.90;;;3.90;;
60038;SDS011;45916;52.734;6.544;2023-12-29T03:44:11;10.30;;;3.95;;
60038;SDS011;45916;52.734;6.544;2023-12-29T03:46:37;9.50;;;4.55;;
60038;SDS011;45916;52.734;6.544;2023-12-29T03:49:02;14.10;;;4.78;;
60038;SDS011;45916;52.734;6.544;2023-12-29T03:51:28;11.02;;;4.93;;
60038;SDS011;45916;52.734;6.544;2023-12-29T03:53:55;12.20;;;4.13;;
60038;SDS011;45916;52.734;6.544;2023-12-29T03:56:20;13.10;;;4.65;;
60038;SDS011;45916;52.734;6.544;2023-12-29T03:58:46;17.50;;;4.93;;
60038;SDS011;45916;52.734;6.544;2023-12-29T04:01:12;12.13;;;4.75;;
60038;SDS011;45916;52.734;6.544;2023-12-29T04:03:39;14.85;;;4.80;;
60038;SDS011;45916;52.734;6.544;2023-12-29T04:06:05;11.18;;;4.32;;
60038;SDS011;45916;52.734;6.544;2023-12-29T04:08:35;15.23;;;4.65;;
60038;SDS011;45916;52.734;6.544;2023-12-29T04:11:01;13.13;;;4.10;;
60038;SDS011;45916;52.734;6.544;2023-12-29T04:13:28;11.30;;;4.55;;
60038;SDS011;45916;52.734;6.544;2023-12-29T04:15:54;13.38;;;5.75;;
60038;SDS011;45916;52.734;6.544;2023-12-29T04:18:20;10.90;;;4.35;;
60038;SDS011;45916;52.734;6.544;2023-12-29T04:20:47;13.15;;;4.93;;
60038;SDS011;45916;52.734;6.544;2023-12-29T04:23:13;12.65;;;4.65;;
60038;SDS011;45916;52.734;6.544;2023-12-29T04:25:38;15.30;;;5.43;;
60038;SDS011;45916;52.734;6.544;2023-12-29T04:28:04;16.35;;;4.60;;
60038;SDS011;45916;52.734;6.544;2023-12-29T04:30:30;12.75;;;4.93;;
60038;SDS011;45916;52.734;6.544;2023-12-29T04:32:56;10.82;;;3.97;;
60038;SDS011;45916;52.734;6.544;2023-12-29T04:35:21;15.05;;;4.20;;
60038;SDS011;45916;52.734;6.544;2023-12-29T04:37:47;13.38;;;4.25;;
60038;SDS011;45916;52.734;6.544;2023-12-29T04:40:14;13.65;;;4.63;;
60038;SDS011;45916;52.734;6.544;2023-12-29T04:42:40;16.02;;;4.85;;
60038;SDS011;45916;52.734;6.544;2023-12-29T04:45:06;15.70;;;4.53;;
60038;SDS011;45916;52.734;6.544;2023-12-29T04:47:32;11.55;;;4.65;;
60038;SDS011;45916;52.734;6.544;2023-12-29T04:49:58;14.57;;;5.18;;
60038;SDS011;45916;52.734;6.544;2023-12-29T04:52:23;11.13;;;3.78;;
60038;SDS011;45916;52.734;6.544;2023-12-29T04:54:49;16.42;;;4.20;;
60038;SDS011;45916;52.734;6.544;2023-12-29T04:57:15;12.95;;;4.28;;
60038;SDS011;45916;52.734;6.544;2023-12-29T04:59:41;12.93;;;4.70;;
60038;SDS011;45916;52.734;6.544;2023-12-29T05:02:06;14.02;;;4.32;;
60038;SDS011;45916;52.734;6.544;2023-12-29T05:04:32;19.13;;;4.93;;
60038;SDS011;45916;52.734;6.544;2023-12-29T05:06:58;12.13;;;3.95;;
60038;SDS011;45916;52.734;6.544;2023-12-29T05:09:24;17.33;;;5.00;;
60038;SDS011;45916;52.734;6.544;2023-12-29T05:11:49;12.93;;;5.18;;
60038;SDS011;45916;52.734;6.544;2023-12-29T05:14:15;13.77;;;4.20;;
60038;SDS011;45916;52.734;6.544;2023-12-29T05:16:41;11.25;;;4.28;;
60038;SDS011;45916;52.734;6.544;2023-12-29T05:19:07;13.77;;;4.80;;
60038;SDS011;45916;52.734;6.544;2023-12-29T05:21:33;15.63;;;4.50;;
60038;SDS011;45916;52.734;6.544;2023-12-29T05:23:59;13.45;;;4.70;;
60038;SDS011;45916;52.734;6.544;2023-12-29T05:26:24;12.02;;;4.22;;
60038;SDS011;45916;52.734;6.544;2023-12-29T05:28:50;17.05;;;4.90;;
60038;SDS011;45916;52.734;6.544;2023-12-29T05:31:16;14.75;;;4.80;;
60038;SDS011;45916;52.734;6.544;2023-12-29T05:33:44;16.52;;;5.10;;
60038;SDS011;45916;52.734;6.544;2023-12-29T05:36:10;17.83;;;5.60;;
60038;SDS011;45916;52.734;6.544;2023-12-29T05:38:36;14.00;;;4.32;;
60038;SDS011;45916;52.734;6.544;2023-12-29T05:41:02;15.07;;;4.85;;
60038;SDS011;45916;52.734;6.544;2023-12-29T05:43:33;15.70;;;5.13;;
60038;SDS011;45916;52.734;6.544;2023-12-29T05:45:59;19.80;;;5.03;;
60038;SDS011;45916;52.734;6.544;2023-12-29T05:48:26;14.82;;;5.40;;
60038;SDS011;45916;52.734;6.544;2023-12-29T05:50:51;19.48;;;5.43;;
60038;SDS011;45916;52.734;6.544;2023-12-29T05:53:17;21.42;;;5.55;;
60038;SDS011;45916;52.734;6.544;2023-12-29T05:55:43;15.48;;;4.75;;
60038;SDS011;45916;52.734;6.544;2023-12-29T05:58:10;14.27;;;5.47;;
60038;SDS011;45916;52.734;6.544;2023-12-29T06:00:36;24.45;;;6.50;;
60038;SDS011;45916;52.734;6.544;2023-12-29T06:03:02;18.88;;;5.57;;
60038;SDS011;45916;52.734;6.544;2023-12-29T06:05:31;17.58;;;4.85;;
60038;SDS011;45916;52.734;6.544;2023-12-29T06:07:58;20.75;;;5.40;;
60038;SDS011;45916;52.734;6.544;2023-12-29T06:10:24;17.95;;;4.60;;
60038;SDS011;45916;52.734;6.544;2023-12-29T06:12:49;16.05;;;6.13;;
60038;SDS011;45916;52.734;6.544;2023-12-29T06:15:15;18.00;;;5.43;;
60038;SDS011;45916;52.734;6.544;2023-12-29T06:17:41;19.60;;;5.30;;
60038;SDS011;45916;52.734;6.544;2023-12-29T06:20:07;20.75;;;5.78;;
60038;SDS011;45916;52.734;6.544;2023-12-29T06:22:39;18.95;;;5.43;;
60038;SDS011;45916;52.734;6.544;2023-12-29T06:25:08;21.98;;;6.05;;
60038;SDS011;45916;52.734;6.544;2023-12-29T06:27:36;23.77;;;5.88;;
60038;SDS011;45916;52.734;6.544;2023-12-29T06:30:06;23.55;;;6.80;;
60038;SDS011;45916;52.734;6.544;2023-12-29T06:32:33;24.38;;;5.30;;
60038;SDS011;45916;52.734;6.544;2023-12-29T06:34:59;21.75;;;6.22;;
60038;SDS011;45916;52.734;6.544;2023-12-29T06:37:25;21.70;;;6.13;;
60038;SDS011;45916;52.734;6.544;2023-12-29T06:39:50;18.52;;;5.88;;
60038;SDS011;45916;52.734;6.544;2023-12-29T06:42:16;19.15;;;5.70;;
60038;SDS011;45916;52.734;6.544;2023-12-29T06:44:42;23.77;;;5.97;;
60038;SDS011;45916;52.734;6.544;2023-12-29T06:47:07;20.95;;;5.25;;
60038;SDS011;45916;52.734;6.544;2023-12-29T06:49:34;17.25;;;5.40;;
60038;SDS011;45916;52.734;6.544;2023-12-29T06:52:00;21.35;;;5.45;;
60038;SDS011;45916;52.734;6.544;2023-12-29T06:54:26;21.58;;;5.80;;
60038;SDS011;45916;52.734;6.544;2023-12-29T06:56:52;20.55;;;7.13;;
60038;SDS011;45916;52.734;6.544;2023-12-29T06:59:17;20.25;;;5.35;;
60038;SDS011;45916;52.734;6.544;2023-12-29T07:01:44;19.60;;;6.30;;
60038;SDS011;45916;52.734;6.544;2023-12-29T07:04:11;21.38;;;6.72;;
60038;SDS011;45916;52.734;6.544;2023-12-29T07:06:37;24.20;;;6.80;;
60038;SDS011;45916;52.734;6.544;2023-12-29T07:09:03;17.67;;;6.00;;
60038;SDS011;45916;52.734;6.544;2023-12-29T07:11:29;18.85;;;5.63;;
60038;SDS011;45916;52.734;6.544;2023-12-29T07:13:55;19.25;;;6.07;;
60038;SDS011;45916;52.734;6.544;2023-12-29T07:16:20;16.45;;;6.15;;
60038;SDS011;45916;52.734;6.544;2023-12-29T07:18:46;21.08;;;5.93;;
60038;SDS011;45916;52.734;6.544;2023-12-29T07:21:12;17.23;;;5.70;;
60038;SDS011;45916;52.734;6.544;2023-12-29T07:23:39;25.38;;;6.57;;
60038;SDS011;45916;52.734;6.544;2023-12-29T07:26:06;22.90;;;6.07;;
60038;SDS011;45916;52.734;6.544;2023-12-29T07:28:32;19.88;;;6.20;;
60038;SDS011;45916;52.734;6.544;2023-12-29T07:30:59;17.30;;;6.47;;
60038;SDS011;45916;52.734;6.544;2023-12-29T07:33:25;20.65;;;7.18;;
60038;SDS011;45916;52.734;6.544;2023-12-29T07:35:50;17.63;;;5.75;;
60038;SDS011;45916;52.734;6.544;2023-12-29T07:38:16;21.92;;;5.95;;
60038;SDS011;45916;52.734;6.544;2023-12-29T07:40:42;19.65;;;6.32;;
60038;SDS011;45916;52.734;6.544;2023-12-29T07:43:08;25.08;;;6.78;;
60038;SDS011;45916;52.734;6.544;2023-12-29T07:45:34;18.95;;;6.60;;
60038;SDS011;45916;52.734;6.544;2023-12-29T07:48:02;15.45;;;5.45;;
60038;SDS011;45916;52.734;6.544;2023-12-29T07:50:28;20.58;;;6.35;;
60038;SDS011;45916;52.734;6.544;2023-12-29T07:52:54;17.55;;;6.15;;
60038;SDS011;45916;52.734;6.544;2023-12-29T07:55:19;21.00;;;6.38;;
60038;SDS011;45916;52.734;6.544;2023-12-29T07:57:45;17.30;;;6.30;;
60038;SDS011;45916;52.734;6.544;2023-12-29T08:00:12;14.73;;;5.55;;
60038;SDS011;45916;52.734;6.544;2023-12-29T08:02:40;17.25;;;5.68;;
60038;SDS011;45916;52.734;6.544;2023-12-29T08:05:06;19.08;;;5.53;;
60038;SDS011;45916;52.734;6.544;2023-12-29T08:07:37;14.75;;;5.60;;
60038;SDS011;45916;52.734;6.544;2023-12-29T08:10:04;17.38;;;4.97;;
60038;SDS011;45916;52.734;6.544;2023-12-29T08:12:32;19.17;;;5.97;;
60038;SDS011;45916;52.734;6.544;2023-12-29T08:15:02;19.70;;;6.50;;
60038;SDS011;45916;52.734;6.544;2023-12-29T08:17:28;23.27;;;6.45;;
60038;SDS011;45916;52.734;6.544;2023-12-29T08:19:54;18.80;;;5.50;;
60038;SDS011;45916;52.734;6.544;2023-12-29T08:22:20;13.23;;;5.28;;
60038;SDS011;45916;52.734;6.544;2023-12-29T08:24:46;19.75;;;5.55;;
60038;SDS011;45916;52.734;6.544;2023-12-29T08:27:12;16.38;;;5.25;;
60038;SDS011;45916;52.734;6.544;2023-12-29T08:29:37;18.45;;;5.43;;
60038;SDS011;45916;52.734;6.544;2023-12-29T08:32:04;18.60;;;5.78;;
60038;SDS011;45916;52.734;6.544;2023-12-29T08:34:29;20.33;;;6.45;;
60038;SDS011;45916;52.734;6.544;2023-12-29T08:36:55;19.45;;;6.55;;
60038;SDS011;45916;52.734;6.544;2023-12-29T08:39:21;19.88;;;5.78;;
60038;SDS011;45916;52.734;6.544;2023-12-29T08:41:47;20.15;;;5.72;;
60038;SDS011;45916;52.734;6.544;2023-12-29T08:44:14;18.05;;;6.10;;
60038;SDS011;45916;52.734;6.544;2023-12-29T08:46:40;18.50;;;5.22;;
60038;SDS011;45916;52.734;6.544;2023-12-29T08:49:06;14.77;;;4.80;;
60038;SDS011;45916;52.734;6.544;2023-12-29T08:51:32;16.08;;;5.03;;
60038;SDS011;45916;52.734;6.544;2023-12-29T08:53:58;16.02;;;4.75;;
60038;SDS011;45916;52.734;6.544;2023-12-29T08:56:24;15.40;;;4.63;;
60038;SDS011;45916;52.734;6.544;2023-12-29T08:58:50;9.13;;;4.40;;
60038;SDS011;45916;52.734;6.544;2023-12-29T09:01:16;12.02;;;4.68;;
60038;SDS011;45916;52.734;6.544;2023-12-29T09:03:41;10.23;;;4.32;;
60038;SDS011;45916;52.734;6.544;2023-12-29T09:06:07;11.07;;;4.20;;
60038;SDS011;45916;52.734;6.544;2023-12-29T09:08:34;11.43;;;4.60;;
60038;SDS011;45916;52.734;6.544;2023-12-29T09:11:00;11.90;;;4.28;;
60038;SDS011;45916;52.734;6.544;2023-12-29T09:13:26;12.50;;;3.95;;
60038;SDS011;45916;52.734;6.544;2023-12-29T09:15:52;13.38;;;4.40;;
60038;SDS011;45916;52.734;6.544;2023-12-29T09:18:19;7.72;;;4.00;;
60038;SDS011;45916;52.734;6.544;2023-12-29T09:20:45;13.43;;;4.75;;
60038;SDS011;45916;52.734;6.544;2023-12-29T09:23:11;11.98;;;4.65;;
60038;SDS011;45916;52.734;6.544;2023-12-29T09:25:36;11.85;;;4.95;;
60038;SDS011;45916;52.734;6.544;2023-12-29T09:28:02;12.30;;;4.60;;
60038;SDS011;45916;52.734;6.544;2023-12-29T09:30:28;11.52;;;4.53;;
60038;SDS011;45916;52.734;6.544;2023-12-29T09:32:54;11.27;;;5.18;;
60038;SDS011;45916;52.734;6.544;2023-12-29T09:35:19;12.23;;;4.95;;
60038;SDS011;45916;52.734;6.544;2023-12-29T09:37:47;11.50;;;4.93;;
60038;SDS011;45916;52.734;6.544;2023-12-29T09:40:13;10.40;;;4.38;;
60038;SDS011;45916;52.734;6.544;2023-12-29T09:42:40;14.23;;;6.50;;
60038;SDS011;45916;52.734;6.544;2023-12-29T09:45:10;10.95;;;4.32;;
60038;SDS011;45916;52.734;6.544;2023-12-29T09:47:40;10.47;;;3.90;;
60038;SDS011;45916;52.734;6.544;2023-12-29T09:50:11;9.93;;;4.40;;
60038;SDS011;45916;52.734;6.544;2023-12-29T09:52:38;8.82;;;4.10;;
60038;SDS011;45916;52.734;6.544;2023-12-29T09:55:07;9.50;;;3.75;;
60038;SDS011;45916;52.734;6.544;2023-12-29T09:57:40;9.75;;;4.75;;
60038;SDS011;45916;52.734;6.544;2023-12-29T10:00:06;9.32;;;3.63;;
60038;SDS011;45916;52.734;6.544;2023-12-29T10:02:36;8.60;;;4.03;;
60038;SDS011;45916;52.734;6.544;2023-12-29T10:05:02;7.22;;;3.70;;
60038;SDS011;45916;52.734;6.544;2023-12-29T10:07:31;8.47;;;3.37;;
60038;SDS011;45916;52.734;6.544;2023-12-29T10:10:00;8.27;;;3.47;;
60038;SDS011;45916;52.734;6.544;2023-12-29T10:12:27;7.13;;;3.55;;
60038;SDS011;45916;52.734;6.544;2023-12-29T10:15:00;7.10;;;3.13;;
60038;SDS011;45916;52.734;6.544;2023-12-29T10:17:41;7.97;;;3.30;;
60038;SDS011;45916;52.734;6.544;2023-12-29T10:23:06;5.22;;;1.90;;
60038;SDS011;45916;52.734;6.544;2023-12-29T10:25:38;6.95;;;1.88;;
60038;SDS011;45916;52.734;6.544;2023-12-29T10:28:04;5.05;;;1.70;;
60038;SDS011;45916;52.734;6.544;2023-12-29T10:30:31;6.03;;;2.05;;
60038;SDS011;45916;52.734;6.544;2023-12-29T10:32:57;6.70;;;1.42;;
60038;SDS011;45916;52.734;6.544;2023-12-29T10:35:25;5.80;;;2.40;;
60038;SDS011;45916;52.734;6.544;2023-12-29T10:37:51;6.07;;;1.75;;
60038;SDS011;45916;52.734;6.544;2023-12-29T10:40:17;6.50;;;1.52;;
60038;SDS011;45916;52.734;6.544;2023-12-29T10:42:53;3.65;;;1.20;;
60038;SDS011;45916;52.734;6.544;2023-12-29T10:45:20;6.43;;;1.73;;
60038;SDS011;45916;52.734;6.544;2023-12-29T10:47:46;6.88;;;1.80;;
60038;SDS011;45916;52.734;6.544;2023-12-29T10:50:11;5.90;;;1.67;;
60038;SDS011;45916;52.734;6.544;2023-12-29T10:52:37;4.18;;;1.67;;
60038;SDS011;45916;52.734;6.544;2023-12-29T10:55:06;4.97;;;1.73;;
60038;SDS011;45916;52.734;6.544;2023-12-29T10:57:37;8.18;;;2.00;;
60038;SDS011;45916;52.734;6.544;2023-12-29T11:00:03;7.03;;;2.03;;
60038;SDS011;45916;52.734;6.544;2023-12-29T11:02:33;7.40;;;2.22;;
60038;SDS011;45916;52.734;6.544;2023-12-29T11:05:06;8.63;;;2.40;;
60038;SDS011;45916;52.734;6.544;2023-12-29T11:07:40;8.68;;;2.50;;
60038;SDS011;45916;52.734;6.544;2023-12-29T11:10:07;12.90;;;3.00;;
60038;SDS011;45916;52.734;6.544;2023-12-29T11:12:37;9.02;;;2.83;;
60038;SDS011;45916;52.734;6.544;2023-12-29T11:15:04;9.45;;;2.80;;
60038;SDS011;45916;52.734;6.544;2023-12-29T11:17:33;11.17;;;3.40;;
60038;SDS011;45916;52.734;6.544;2023-12-29T11:20:02;11.95;;;2.58;;
60038;SDS011;45916;52.734;6.544;2023-12-29T11:22:29;9.35;;;3.10;;
60038;SDS011;45916;52.734;6.544;2023-12-29T11:24:59;9.30;;;3.22;;
60038;SDS011;45916;52.734;6.544;2023-12-29T11:27:26;8.80;;;3.30;;
60038;SDS011;45916;52.734;6.544;2023-12-29T11:32:20;8.90;;;3.40;;
60038;SDS011;45916;52.734;6.544;2023-12-29T11:34:53;11.23;;;4.20;;
60038;SDS011;45916;52.734;6.544;2023-12-29T11:40:44;9.70;;;3.55;;
60038;SDS011;45916;52.734;6.544;2023-12-29T11:43:05;10.32;;;4.78;;
60038;SDS011;45916;52.734;6.544;2023-12-29T11:45:35;11.27;;;4.00;;
60038;SDS011;45916;52.734;6.544;2023-12-29T11:48:01;13.25;;;5.40;;
60038;SDS011;45916;52.734;6.544;2023-12-29T11:50:28;14.82;;;4.00;;
60038;SDS011;45916;52.734;6.544;2023-12-29T11:52:55;9.73;;;3.53;;
60038;SDS011;45916;52.734;6.544;2023-12-29T11:55:21;13.68;;;3.88;;
60038;SDS011;45916;52.734;6.544;2023-12-29T11:57:52;10.23;;;4.05;;
60038;SDS011;45916;52.734;6.544;2023-12-29T12:00:18;14.75;;;4.70;;
60038;SDS011;45916;52.734;6.544;2023-12-29T12:02:44;10.45;;;4.90;;
60038;SDS011;45916;52.734;6.544;2023-12-29T12:05:10;11.90;;;5.03;;
60038;SDS011;45916;52.734;6.544;2023-12-29T12:10:44;17.42;;;5.22;;
60038;SDS011;45916;52.734;6.544;2023-12-29T12:12:51;12.68;;;3.67;;
60038;SDS011;45916;52.734;6.544;2023-12-29T12:17:59;9.45;;;3.95;;
60038;SDS011;45916;52.734;6.544;2023-12-29T12:20:34;10.43;;;3.15;;
60038;SDS011;45916;52.734;6.544;2023-12-29T12:23:01;12.82;;;2.65;;
60038;SDS011;45916;52.734;6.544;2023-12-29T12:25:31;13.85;;;3.72;;
60038;SDS011;45916;52.734;6.544;2023-12-29T12:28:05;15.20;;;3.42;;
60038;SDS011;45916;52.734;6.544;2023-12-29T12:30:32;9.50;;;3.13;;
60038;SDS011;45916;52.734;6.544;2023-12-29T12:33:02;9.38;;;3.13;;
60038;SDS011;45916;52.734;6.544;2023-12-29T12:35:29;10.65;;;3.10;;
60038;SDS011;45916;52.734;6.544;2023-12-29T12:38:08;17.48;;;4.25;;
60038;SDS011;45916;52.734;6.544;2023-12-29T12:40:36;16.10;;;5.30;;
60038;SDS011;45916;52.734;6.544;2023-12-29T12:43:03;14.32;;;4.45;;
60038;SDS011;45916;52.734;6.544;2023-12-29T12:45:29;7.80;;;3.05;;
60038;SDS011;45916;52.734;6.544;2023-12-29T12:48:01;13.55;;;3.30;;
60038;SDS011;45916;52.734;6.544;2023-12-29T12:50:28;9.85;;;2.15;;
60038;SDS011;45916;52.734;6.544;2023-12-29T12:52:55;13.90;;;3.40;;
60038;SDS011;45916;52.734;6.544;2023-12-29T12:55:23;10.68;;;3.13;;
60038;SDS011;45916;52.734;6.544;2023-12-29T12:57:49;10.25;;;3.10;;
60038;SDS011;45916;52.734;6.544;2023-12-29T13:00:15;12.98;;;3.97;;
60038;SDS011;45916;52.734;6.544;2023-12-29T13:02:44;14.88;;;3.45;;
60038;SDS011;45916;52.734;6.544;2023-12-29T13:05:12;9.90;;;3.00;;
60038;SDS011;45916;52.734;6.544;2023-12-29T13:07:41;12.35;;;3.40;;
60038;SDS011;45916;52.734;6.544;2023-12-29T13:10:07;13.55;;;3.50;;
60038;SDS011;45916;52.734;6.544;2023-12-29T13:12:34;9.88;;;2.95;;
60038;SDS011;45916;52.734;6.544;2023-12-29T13:15:06;11.80;;;3.20;;
60038;SDS011;45916;52.734;6.544;2023-12-29T13:17:35;12.43;;;3.10;;
60038;SDS011;45916;52.734;6.544;2023-12-29T13:20:01;11.70;;;3.63;;
60038;SDS011;45916;52.734;6.544;2023-12-29T13:22:30;11.55;;;3.65;;
60038;SDS011;45916;52.734;6.544;2023-12-29T13:24:57;11.50;;;3.10;;
60038;SDS011;45916;52.734;6.544;2023-12-29T13:27:23;12.05;;;3.20;;
60038;SDS011;45916;52.734;6.544;2023-12-29T13:29:48;12.88;;;3.13;;
60038;SDS011;45916;52.734;6.544;2023-12-29T13:32:16;9.88;;;2.25;;
60038;SDS011;45916;52.734;6.544;2023-12-29T13:40:09;12.05;;;2.95;;
60038;SDS011;45916;52.734;6.544;2023-12-29T13:42:44;10.27;;;2.53;;
60038;SDS011;45916;52.734;6.544;2023-12-29T13:45:12;11.48;;;2.60;;
60038;SDS011;45916;52.734;6.544;2023-12-29T13:50:08;13.13;;;3.72;;
60038;SDS011;45916;52.734;6.544;2023-12-29T13:52:35;10.15;;;2.88;;
60038;SDS011;45916;52.734;6.544;2023-12-29T13:55:02;8.85;;;2.15;;
60038;SDS011;45916;52.734;6.544;2023-12-29T13:57:29;10.20;;;2.88;;
60038;SDS011;45916;52.734;6.544;2023-12-29T14:00:20;9.10;;;2.30;;
60038;SDS011;45916;52.734;6.544;2023-12-29T14:05:31;12.23;;;2.75;;
60038;SDS011;45916;52.734;6.544;2023-12-29T14:08:00;10.88;;;2.88;;
60038;SDS011;45916;52.734;6.544;2023-12-29T14:13:09;8.73;;;2.95;;
60038;SDS011;45916;52.734;6.544;2023-12-29T14:15:41;12.85;;;3.42;;
60038;SDS011;45916;52.734;6.544;2023-12-29T14:20:58;14.52;;;3.10;;
60038;SDS011;45916;52.734;6.544;2023-12-29T14:23:24;12.43;;;2.90;;
60038;SDS011;45916;52.734;6.544;2023-12-29T14:25:50;9.60;;;2.40;;
60038;SDS011;45916;52.734;6.544;2023-12-29T14:28:17;11.25;;;3.05;;
60038;SDS011;45916;52.734;6.544;2023-12-29T14:30:47;12.25;;;2.90;;
60038;SDS011;45916;52.734;6.544;2023-12-29T14:33:12;14.75;;;3.58;;
60038;SDS011;45916;52.734;6.544;2023-12-29T14:35:38;12.80;;;2.63;;
60038;SDS011;45916;52.734;6.544;2023-12-29T14:38:04;14.82;;;3.78;;
60038;SDS011;45916;52.734;6.544;2023-12-29T14:40:30;14.88;;;3.75;;
60038;SDS011;45916;52.734;6.544;2023-12-29T14:42:59;10.88;;;2.58;;
60038;SDS011;45916;52.734;6.544;2023-12-29T14:45:25;15.38;;;3.00;;
60038;SDS011;45916;52.734;6.544;2023-12-29T14:47:54;14.02;;;3.50;;
60038;SDS011;45916;52.734;6.544;2023-12-29T14:50:20;11.50;;;4.68;;
60038;SDS011;45916;52.734;6.544;2023-12-29T14:52:46;12.73;;;3.95;;
60038;SDS011;45916;52.734;6.544;2023-12-29T14:55:11;8.52;;;3.13;;
60038;SDS011;45916;52.734;6.544;2023-12-29T14:57:37;11.52;;;3.10;;
60038;SDS011;45916;52.734;6.544;2023-12-29T15:00:03;8.15;;;2.83;;
60038;SDS011;45916;52.734;6.544;2023-12-29T15:02:30;12.45;;;3.50;;
60038;SDS011;45916;52.734;6.544;2023-12-29T15:04:55;15.73;;;3.92;;
60038;SDS011;45916;52.734;6.544;2023-12-29T15:07:21;13.88;;;3.50;;
60038;SDS011;45916;52.734;6.544;2023-12-29T15:09:49;10.80;;;3.90;;